Weather at Huahine-Fare Airport

Public forecast

Using degrees Celsius for public forecast. Weather courtesy of forecast.io.

Closest aviation weather report (METAR) to Huahine-Fare Airport

Closest report is Faa'a International Airport, 96.4 nm (178.6 km) ESE.

2024/05/28 04:30 (retrieved 19 minutes ago)

NTAA 280430Z 20004KT 160V270 9999 FEW023 SCT300 27/21 Q1014 WS R22 NOSIG

Closest aviation forecast (TAF) to Huahine-Fare Airport

Forecast is more than 12 hours old.

Closest forecast is MarĂ© Airport, 2,334.3 nm (4,323.2 km) WSW.

2024/05/26 15:00 Ammendment (retrieved 2 days ago)

TAF AMD NWWR 260500Z 2615/2706 CNL